Latest Weather Observations for Truscott

IDW60801

Issued at 4:43 pm WST Sunday 15 December 2019 (issued every 10 minutes, with the page automatically refreshed every 10 minutes)

About weather observations | Map of weather stations | Latest weather observations for WA | Other Formats
Station Details ID: 001020 Name: TRUSCOTT Lat: -14.09 Lon: 126.39 Height: 51.0 m
Data from the previous 72 hours. | See also: Recent months at Truscott
Date/Time
WST
Temp
°C
App
Temp
°C
Dew
Point
°C
Rel
Hum
%
Delta-T
°C
Wind Press
QNH
hPa
Press
MSL
hPa
Rain since
9am
mm
Dir  Spd
km/h
Gust
km/h
Spd
kts
Gust
kts
15/04:30pm 31.3 34.0 24.2 66 5.0 NW 17 24 9 13 1005.9 1005.5 0.0
15/04:00pm 32.1 34.5 24.2 63 5.5 NNW 19 26 10 14 1005.8 1005.4 0.0
15/03:30pm 31.9 34.0 23.7 62 5.7 NW 19 30 10 16 1006.0 1005.6 0.0
15/03:00pm 32.6 34.9 24.1 61 6.0 NW 19 28 10 15 1005.9 1005.3 0.0
15/02:30pm 32.8 35.3 24.8 62 5.6 NNW 20 30 11 16 1006.2 1005.8 0.0
15/02:00pm 33.1 35.1 24.0 59 6.4 N 20 28 11 15 1006.5 1006.1 0.0
15/01:30pm 34.2 37.0 25.0 58 6.5 NNW 19 28 10 15 1006.6 1006.2 0.0
15/01:00pm 33.9 36.3 24.2 57 6.8 NNW 19 28 10 15 1006.9 1006.5 0.0
15/12:30pm 33.9 36.3 24.2 57 6.8 N 19 24 10 13 1007.2 1006.8 0.0
15/12:00pm 35.4 37.1 23.0 48 8.6 NNW 19 26 10 14 1007.6 1007.0 0.0
15/11:30am 34.3 35.8 22.0 48 8.4 NNW 17 26 9 14 1008.0 1007.6 0.0
15/11:00am 34.8 36.4 22.2 48 8.7 NW 17 24 9 13 1008.2 1007.8 0.0
15/10:30am 34.9 37.9 22.6 49 8.5 NNW 11 19 6 10 1008.4 1008.0 0.0
15/10:00am 34.2 37.3 22.9 51 7.8 N 11 22 6 12 1008.7 1008.3 0.0
15/09:30am 34.7 36.1 17.9 37 10.9 SW 7 11 4 6 1008.9 1008.5 0.0
15/09:00am 34.4 35.3 18.4 38 10.5 SSE 11 19 6 10 1009.2 1008.6 0.0
15/08:30am 33.0 34.6 19.1 43 9.1 SSE 9 17 5 9 1009.3 1008.9 0.0
15/08:00am 32.3 34.1 21.2 52 7.5 ESE 13 19 7 10 1009.3 1008.9 0.0
15/07:30am 30.7 33.5 22.3 61 5.7 S 11 17 6 9 1009.2 1008.8 0.0
15/07:00am 29.6 33.2 23.1 68 4.5 S 9 13 5 7 1008.9 1008.5 0.0
15/06:30am 28.5 32.1 23.0 72 3.8 S 9 13 5 7 1008.6 1008.2 0.0
15/06:00am 27.4 31.3 23.0 77 3.0 S 7 9 4 5 1008.4 1007.8 0.0
15/05:30am 26.0 30.7 24.0 89 1.4 SSE 6 9 3 5 1008.2 1007.8 0.0
15/05:00am 25.9 29.9 23.8 88 1.4 S 9 11 5 6 1007.7 1007.3 0.0
15/04:30am 26.4 30.6 24.1 87 1.6 S 9 11 5 6 1007.6 1007.2 0.0
15/04:00am 25.4 29.9 24.0 92 1.0 SSE 7 9 4 5 1007.4 1007.0 0.0
15/03:30am 25.8 30.1 23.7 88 1.4 SSE 7 11 4 6 1007.2 1006.8 0.0
15/03:00am 26.8 30.9 24.6 88 1.5 SSW 11 13 6 7 1007.4 1006.8 0.0
15/02:30am 26.2 31.6 23.9 87 1.6 S 2 7 1 4 1007.0 1006.6 0.0
15/02:00am 25.7 31.4 23.7 89 1.4 CALM 0 0 0 0 1007.1 1006.7 0.0
15/01:30am 25.8 31.2 23.3 86 1.7 CALM 0 0 0 0 1007.6 1007.2 0.0
15/01:00am 26.3 31.8 23.4 84 2.0 CALM 0 0 0 0 1007.7 1007.3 0.0
15/12:30am 26.8 32.6 23.9 84 2.0 CALM 0 0 0 0 1008.3 1007.9 0.0
15/12:00am 26.5 32.2 23.8 85 1.9 CALM 0 2 0 1 1008.5 1007.9 0.0
 
Date/Time
WST
Temp
°C
App
Temp
°C
Dew
Point
°C
Rel
Hum
%
Delta-T
°C
Wind Press
QNH
hPa
Press
MSL
hPa
Rain since
9am
mm
Dir  Spd
km/h
Gust
km/h
Spd
kts
Gust
kts
14/11:30pm 26.9 31.9 23.8 83 2.1 S 4 7 2 4 1008.9 1008.5 0.0
14/11:00pm 27.0 31.3 23.7 82 2.3 SSE 7 11 4 6 1009.2 1008.8 0.0
14/10:30pm 26.9 31.5 23.2 80 2.5 E 4 7 2 4 1009.4 1009.0 0.0
14/10:00pm 26.9 32.1 22.9 79 2.7 CALM 0 0 0 0 1009.4 1009.0 0.0
14/09:30pm 26.8 32.1 23.1 80 2.5 CALM 0 0 0 0 1009.3 1008.9 0.0
14/09:00pm 27.2 32.5 23.0 78 2.9 CALM 0 0 0 0 1008.8 1008.2 0.0
14/08:30pm 27.2 31.2 22.8 77 3.0 SSE 6 9 3 5 1008.9 1008.5 0.0
14/08:00pm 27.8 32.1 22.7 74 3.5 SSW 4 7 2 4 1008.6 1008.2 0.0
14/07:30pm 28.4 31.7 21.9 68 4.4 SSE 7 11 4 6 1008.7 1008.3 0.0
14/07:00pm 29.3 33.3 22.0 64 4.9 WNW 4 7 2 4 1008.5 1008.1 0.0
14/06:30pm 29.7 32.4 21.4 61 5.6 WNW 9 11 5 6 1008.1 1007.7 0.0
14/06:00pm 30.7 33.8 20.3 53 6.9 NNW 4 9 2 5 1007.9 1007.3 0.0
14/05:30pm 31.2 33.5 19.9 51 7.5 NW 7 9 4 5 1007.4 1007.0 0.0
14/05:00pm 31.6 34.6 21.2 54 7.0 WSW 7 13 4 7 1007.4 1007.0 0.0
14/04:30pm 31.3 34.2 21.8 57 6.4 S 9 13 5 7 1007.6 1007.2 0.0
14/04:00pm 31.0 34.3 21.5 57 6.4 SSE 6 9 3 5 1007.6 1007.2 0.0
14/03:30pm 30.1 34.1 22.0 62 5.5 SW 4 7 2 4 1007.9 1007.5 0.0
14/03:00pm 29.5 32.2 22.2 65 5.0 SW 11 15 6 8 1007.9 1007.3 0.0
14/02:30pm 28.2 31.8 22.0 69 4.2 SSE 6 13 3 7 1007.7 1007.3 0.0
14/02:00pm 26.8 30.0 21.3 72 3.7 SSW 6 11 3 6 1007.8 1007.4 0.0
14/01:30pm 26.4 27.6 21.4 74 3.3 SSW 17 28 9 15 1008.7 1008.3 0.0
14/01:00pm 27.2 28.3 21.2 69 4.0 S 17 30 9 16 1009.8 1009.4 0.0
14/12:30pm 31.5 34.7 24.9 68 4.7 N 17 26 9 14 1009.3 1008.9 0.0
14/12:00pm 33.0 34.4 23.6 57 6.6 NNW 22 32 12 17 1008.6 1008.0 0.0
14/11:30am 34.4 36.6 24.0 54 7.3 NNW 19 30 10 16 1009.0 1008.6 0.0
14/11:00am 32.8 34.8 24.0 60 6.2 NNW 20 28 11 15 1009.1 1008.7 0.0
14/10:30am 34.0 36.9 25.1 59 6.3 NNW 19 28 10 15 1009.6 1009.2 0.0
14/10:00am 32.6 35.6 24.6 62 5.6 NNW 17 24 9 13 1009.8 1009.4 0.0
14/09:30am 32.4 35.3 23.9 61 5.9 N 15 24 8 13 1009.9 1009.5 0.0
14/09:00am 33.5 37.9 23.8 57 6.8 NW 7 17 4 9 1010.1 1009.5 0.0
14/08:30am 33.1 36.8 22.5 53 7.3 NNW 7 11 4 6 1010.1 1009.7 0.0
14/08:00am 32.3 36.5 23.5 59 6.1 NNE 7 13 4 7 1010.3 1009.9 0.0
14/07:30am 31.2 35.6 23.8 64 5.1 NW 7 11 4 6 1010.1 1009.7 0.0
14/07:00am 30.5 35.0 23.9 68 4.6 NNW 7 11 4 6 1010.0 1009.6 0.0
14/06:30am 29.8 35.6 24.0 71 4.0 CALM 0 6 0 3 1009.9 1009.5 0.0
14/06:00am 28.6 33.9 23.7 75 3.4 E 2 6 1 3 1009.9 1009.3 0.0
14/05:30am 26.7 31.9 23.6 83 2.1 ESE 2 9 1 5 1009.8 1009.4 0.0
14/05:00am 26.5 32.0 23.4 83 2.1 CALM 0 0 0 0 1009.3 1008.9 0.0
14/04:30am 26.6 31.9 23.1 81 2.4 CALM 0 0 0 0 1009.0 1008.6 0.0
14/04:00am 26.8 31.5 22.6 78 2.8 S 2 6 1 3 1008.9 1008.5 0.0
14/03:30am 28.0 32.1 22.9 74 3.5 SW 6 9 3 5 1008.6 1008.2 0.0
14/03:00am 27.4 32.6 22.8 76 3.1 CALM 0 0 0 0 1008.6 1008.0 0.0
14/02:30am 26.9 31.9 22.5 77 3.0 CALM 0 0 0 0 1008.7 1008.3 0.0
14/02:00am 27.5 32.0 22.2 73 3.6 ESE 2 6 1 3 1008.8 1008.4 0.0
14/01:30am 27.7 31.5 22.4 73 3.6 W 6 9 3 5 1008.6 1008.2 0.0
14/01:00am 27.8 32.4 22.5 73 3.6 S 2 7 1 4 1008.7 1008.3 0.0
14/12:30am 27.9 31.1 21.7 69 4.2 S 7 11 4 6 1009.2 1008.8 0.0
14/12:00am 28.1 32.8 21.9 69 4.2 CALM 0 0 0 0 1009.3 1008.7 0.0
 
Date/Time
WST
Temp
°C
App
Temp
°C
Dew
Point
°C
Rel
Hum
%
Delta-T
°C
Wind Press
QNH
hPa
Press
MSL
hPa
Rain since
9am
mm
Dir  Spd
km/h
Gust
km/h
Spd
kts
Gust
kts
13/11:30pm 27.8 30.9 21.1 67 4.5 SSE 6 9 3 5 1009.6 1009.2 0.0
13/11:00pm 27.8 32.0 20.9 66 4.6 CALM 0 0 0 0 1010.1 1009.7 0.0
13/10:30pm 28.0 31.5 21.1 66 4.6 ESE 4 9 2 5 1010.4 1010.0 0.0
13/10:00pm 27.9 31.3 20.2 63 5.1 ESE 2 7 1 4 1010.2 1009.8 0.0
13/09:30pm 27.9 31.5 19.7 61 5.3 CALM 0 4 0 2 1010.0 1009.6 0.0
13/09:00pm 27.8 30.6 19.6 61 5.3 SE 4 7 2 4 1009.9 1009.3 0.0
13/08:30pm 28.1 30.7 20.4 63 5.1 E 7 9 4 5 1009.1 1008.7 0.0
13/08:00pm 29.1 33.1 21.3 62 5.2 WSW 2 7 1 4 1008.7 1008.3 0.0
13/07:30pm 28.6 31.5 20.6 62 5.3 WSW 6 11 3 6 1007.8 1007.4 0.0
13/07:00pm 28.9 31.1 19.5 57 6.1 WSW 7 9 4 5 1007.8 1007.4 0.0
13/06:30pm 29.5 30.1 18.6 52 7.0 SW 13 19 7 10 1007.5 1007.1 0.0
13/06:00pm 30.3 29.9 18.1 48 7.8 SW 17 20 9 11 1007.0 1006.4 0.0
13/05:30pm 31.2 32.2 19.5 49 7.7 WSW 13 20 7 11 1006.3 1005.9 0.0
13/05:00pm 31.9 32.5 18.5 45 8.7 SW 13 17 7 9 1006.2 1005.8 0.0
13/04:30pm 33.2 36.4 24.4 60 6.2 WNW 15 24 8 13 1006.2 1005.8 0.0
13/04:00pm 34.1 36.6 23.8 55 7.2 WNW 17 28 9 15 1006.0 1005.6 0.0
13/03:30pm 35.2 36.4 22.5 47 8.8 WNW 20 30 11 16 1005.9 1005.5 0.0
13/03:00pm 35.3 35.3 21.6 45 9.4 W 24 35 13 19 1005.9 1005.3 0.0
13/02:30pm 36.1 37.0 21.9 43 9.7 W 20 32 11 17 1006.3 1005.9 0.0
13/02:00pm 35.1 35.5 22.4 47 8.7 W 24 33 13 18 1006.6 1006.2 0.0
13/01:30pm 35.4 36.3 22.0 45 9.2 WNW 20 33 11 18 1007.0 1006.6 0.0
13/01:00pm 35.5 36.7 22.1 45 9.2 W 19 32 10 17 1007.4 1007.0 0.0
13/12:30pm 34.9 37.1 23.2 50 8.1 WNW 17 30 9 16 1008.1 1007.7 0.0
13/12:00pm 34.7 36.0 21.7 46 8.9 W 17 28 9 15 1008.5 1007.9 0.0
13/11:30am 34.6 35.9 21.6 46 8.9 NW 17 28 9 15 1008.6 1008.2 0.0
13/11:00am 34.5 36.3 22.6 50 8.2 WNW 17 30 9 16 1008.9 1008.5 0.0
13/10:30am 34.4 36.2 22.5 50 8.2 W 17 26 9 14 1009.3 1008.9 0.0
13/10:00am 34.0 36.5 23.1 53 7.6 W 15 20 8 11 1009.6 1009.2 0.0
13/09:30am 33.6 36.9 24.5 59 6.4 WNW 15 22 8 12 1010.0 1009.6 0.0
13/09:00am 33.4 37.8 25.1 61 5.9 NW 11 20 6 11 1010.2 1009.6 2.6
13/08:30am 31.9 36.3 25.0 67 4.9 WNW 11 17 6 9 1010.5 1010.1 2.6
13/08:00am 31.1 35.7 25.9 74 3.7 W 13 17 7 9 1010.6 1010.2 2.6
13/07:30am 30.9 35.7 26.2 76 3.4 WNW 13 20 7 11 1010.0 1009.6 2.6
13/07:00am 30.4 35.0 25.9 77 3.2 WNW 13 20 7 11 1009.4 1009.0 2.6
13/06:30am 29.9 34.5 25.9 79 2.8 WNW 13 20 7 11 1009.1 1008.7 2.6
13/06:00am 29.0 34.3 25.2 80 2.7 WNW 7 9 4 5 1009.0 1008.4 2.6
13/05:30am 28.3 33.6 24.9 82 2.4 WNW 6 7 3 4 1008.7 1008.3 2.6
13/05:00am 28.0 33.3 25.0 84 2.1 WNW 6 9 3 5 1008.4 1008.0 2.6
13/04:30am 27.9 33.3 25.1 85 2.0 WNW 6 7 3 4 1008.4 1008.0 2.6
13/04:00am 28.0 34.7 25.4 86 1.8 CALM 0 0 0 0 1008.2 1007.8 2.6
13/03:30am 27.8 33.2 25.4 87 1.7 NW 7 9 4 5 1008.1 1007.7 2.6
13/03:00am 27.4 33.1 25.0 87 1.7 NNW 4 7 2 4 1008.2 1007.6 2.6
13/02:30am 27.1 33.4 24.7 87 1.7 CALM 0 0 0 0 1008.2 1007.8 2.6
13/02:00am 27.1 32.4 24.4 85 1.9 ESE 4 6 2 3 1008.4 1008.0 2.6
13/01:30am 27.3 31.8 23.7 81 2.5 SE 6 9 3 5 1008.5 1008.1 2.6
13/01:00am 27.4 31.9 23.6 80 2.6 SSE 6 9 3 5 1008.6 1008.2 2.6
13/12:30am 27.2 31.3 23.9 82 2.3 SSE 9 13 5 7 1009.0 1008.6 2.6
13/12:00am 27.0 31.0 22.8 78 2.9 SE 6 11 3 6 1008.7 1008.1 2.6
 
Date/Time
WST
Temp
°C
App
Temp
°C
Dew
Point
°C
Rel
Hum
%
Delta-T
°C
Wind Press
QNH
hPa
Press
MSL
hPa
Rain since
9am
mm
Dir  Spd
km/h
Gust
km/h
Spd
kts
Gust
kts
12/11:30pm 26.7 30.8 23.0 80 2.5 WSW 6 7 3 4 1008.9 1008.5 2.6
12/11:00pm 27.5 33.1 23.5 79 2.7 CALM 0 0 0 0 1008.6 1008.2 2.6
12/10:30pm 28.5 33.4 23.0 72 3.8 WSW 2 7 1 4 1008.8 1008.4 2.6
12/10:00pm 28.1 32.9 23.5 76 3.2 NNW 4 6 2 3 1009.0 1008.6 2.6
12/09:30pm 28.6 33.2 23.1 72 3.8 NNW 4 7 2 4 1008.5 1008.1 2.6
12/09:00pm 29.2 33.1 22.9 69 4.3 WNW 7 7 4 4 1007.9 1007.3 2.6
12/08:30pm 29.8 33.5 23.3 68 4.5 WNW 9 13 5 7 1007.6 1007.2 2.6
12/08:00pm 29.9 33.7 24.1 71 4.0 WNW 11 15 6 8 1007.4 1007.0 2.6
12/07:30pm 29.9 34.0 24.5 73 3.8 WNW 11 17 6 9 1007.5 1007.1 2.6
12/07:00pm 29.9 34.0 25.2 76 3.3 W 13 20 7 11 1007.6 1007.2 2.6
12/06:30pm 29.4 32.0 21.9 64 5.1 SW 11 15 6 8 1007.5 1007.1 2.6
12/06:00pm 29.2 31.6 20.9 61 5.5 SW 9 13 5 7 1006.9 1006.3 2.6
12/05:30pm 28.7 30.4 21.0 63 5.1 S 13 19 7 10 1006.9 1006.5 2.6
12/05:00pm 30.5 33.5 21.9 60 5.8 SSW 9 13 5 7 1006.5 1006.1 2.6

Other formats

Comma delimited format used in spreadsheet applications
http://www.bom.gov.au/fwo/IDW60801/IDW60801.95101.axf

JavaScript Object Notation format (JSON) in row-major order
http://www.bom.gov.au/fwo/IDW60801/IDW60801.95101.json

Data quality

Most of these data are generated automatically and are frequently updated. Quality checks on data are not normally performed. It is possible for incorrect values to appear. Refer to information at About Latest Weather Observations and please check the disclaimer before using these data.